sensor_id;sensor_type;location;lat;lon;timestamp;P1;durP1;ratioP1;P2;durP2;ratioP2
70929;SDS011;58588;48.102;19.682;2023-04-24T00:02:47;12.38;;;6.30;;
70929;SDS011;58588;48.102;19.682;2023-04-24T00:05:50;13.17;;;5.97;;
70929;SDS011;58588;48.102;19.682;2023-04-24T00:08:52;16.50;;;6.07;;
70929;SDS011;58588;48.102;19.682;2023-04-24T00:11:54;14.27;;;6.65;;
70929;SDS011;58588;48.102;19.682;2023-04-24T00:14:56;12.93;;;6.03;;
70929;SDS011;58588;48.102;19.682;2023-04-24T00:18:00;14.55;;;6.35;;
70929;SDS011;58588;48.102;19.682;2023-04-24T00:21:02;14.57;;;6.13;;
70929;SDS011;58588;48.102;19.682;2023-04-24T00:24:04;13.68;;;6.45;;
70929;SDS011;58588;48.102;19.682;2023-04-24T00:27:09;11.90;;;5.70;;
70929;SDS011;58588;48.102;19.682;2023-04-24T00:30:11;13.52;;;6.53;;
70929;SDS011;58588;48.102;19.682;2023-04-24T00:33:14;13.27;;;6.30;;
70929;SDS011;58588;48.102;19.682;2023-04-24T00:36:16;13.57;;;6.30;;
70929;SDS011;58588;48.102;19.682;2023-04-24T00:39:20;11.60;;;5.72;;
70929;SDS011;58588;48.102;19.682;2023-04-24T00:42:23;12.95;;;6.47;;
70929;SDS011;58588;48.102;19.682;2023-04-24T00:45:25;14.30;;;6.18;;
70929;SDS011;58588;48.102;19.682;2023-04-24T00:48:28;13.30;;;6.60;;
70929;SDS011;58588;48.102;19.682;2023-04-24T00:51:32;13.20;;;6.30;;
70929;SDS011;58588;48.102;19.682;2023-04-24T00:54:34;11.32;;;5.53;;
70929;SDS011;58588;48.102;19.682;2023-04-24T00:57:36;12.30;;;5.60;;
70929;SDS011;58588;48.102;19.682;2023-04-24T01:00:38;11.43;;;5.43;;
70929;SDS011;58588;48.102;19.682;2023-04-24T01:03:42;11.02;;;5.60;;
70929;SDS011;58588;48.102;19.682;2023-04-24T01:06:44;15.20;;;6.07;;
70929;SDS011;58588;48.102;19.682;2023-04-24T01:09:47;14.95;;;6.45;;
70929;SDS011;58588;48.102;19.682;2023-04-24T01:12:51;16.00;;;6.75;;
70929;SDS011;58588;48.102;19.682;2023-04-24T01:15:53;18.63;;;7.15;;
70929;SDS011;58588;48.102;19.682;2023-04-24T01:18:57;17.55;;;7.50;;
70929;SDS011;58588;48.102;19.682;2023-04-24T01:21:59;13.47;;;6.53;;
70929;SDS011;58588;48.102;19.682;2023-04-24T01:25:05;12.45;;;5.60;;
70929;SDS011;58588;48.102;19.682;2023-04-24T01:28:08;11.07;;;4.93;;
70929;SDS011;58588;48.102;19.682;2023-04-24T01:31:10;12.35;;;5.88;;
70929;SDS011;58588;48.102;19.682;2023-04-24T01:34:12;11.40;;;5.43;;
70929;SDS011;58588;48.102;19.682;2023-04-24T01:37:15;12.33;;;5.40;;
70929;SDS011;58588;48.102;19.682;2023-04-24T01:40:18;13.50;;;5.63;;
70929;SDS011;58588;48.102;19.682;2023-04-24T01:43:21;11.73;;;5.50;;
70929;SDS011;58588;48.102;19.682;2023-04-24T01:46:23;13.57;;;6.07;;
70929;SDS011;58588;48.102;19.682;2023-04-24T01:49:26;13.95;;;6.43;;
70929;SDS011;58588;48.102;19.682;2023-04-24T01:52:28;12.57;;;6.37;;
70929;SDS011;58588;48.102;19.682;2023-04-24T01:55:32;12.68;;;6.03;;
70929;SDS011;58588;48.102;19.682;2023-04-24T01:58:35;13.18;;;5.90;;
70929;SDS011;58588;48.102;19.682;2023-04-24T02:01:37;12.95;;;5.65;;
70929;SDS011;58588;48.102;19.682;2023-04-24T02:04:40;17.05;;;7.47;;
70929;SDS011;58588;48.102;19.682;2023-04-24T02:07:42;12.47;;;6.10;;
70929;SDS011;58588;48.102;19.682;2023-04-24T02:10:45;13.07;;;5.72;;
70929;SDS011;58588;48.102;19.682;2023-04-24T02:13:47;13.48;;;6.28;;
70929;SDS011;58588;48.102;19.682;2023-04-24T02:16:50;13.23;;;6.32;;
70929;SDS011;58588;48.102;19.682;2023-04-24T02:19:53;14.68;;;6.28;;
70929;SDS011;58588;48.102;19.682;2023-04-24T02:22:55;11.77;;;5.27;;
70929;SDS011;58588;48.102;19.682;2023-04-24T02:25:59;18.70;;;7.47;;
70929;SDS011;58588;48.102;19.682;2023-04-24T02:29:01;19.90;;;8.10;;
70929;SDS011;58588;48.102;19.682;2023-04-24T02:32:03;18.92;;;9.07;;
70929;SDS011;58588;48.102;19.682;2023-04-24T02:35:05;15.63;;;7.03;;
70929;SDS011;58588;48.102;19.682;2023-04-24T02:38:08;15.57;;;7.37;;
70929;SDS011;58588;48.102;19.682;2023-04-24T02:41:11;18.38;;;8.45;;
70929;SDS011;58588;48.102;19.682;2023-04-24T02:44:13;21.08;;;8.40;;
70929;SDS011;58588;48.102;19.682;2023-04-24T02:47:15;30.52;;;12.60;;
70929;SDS011;58588;48.102;19.682;2023-04-24T02:50:19;24.13;;;10.35;;
70929;SDS011;58588;48.102;19.682;2023-04-24T02:53:21;18.10;;;8.37;;
70929;SDS011;58588;48.102;19.682;2023-04-24T02:56:25;17.63;;;8.45;;
70929;SDS011;58588;48.102;19.682;2023-04-24T02:59:27;18.40;;;8.95;;
70929;SDS011;58588;48.102;19.682;2023-04-24T03:02:29;18.83;;;8.55;;
70929;SDS011;58588;48.102;19.682;2023-04-24T03:05:31;19.50;;;8.95;;
70929;SDS011;58588;48.102;19.682;2023-04-24T03:08:33;16.80;;;7.97;;
70929;SDS011;58588;48.102;19.682;2023-04-24T03:11:37;17.58;;;7.18;;
70929;SDS011;58588;48.102;19.682;2023-04-24T03:14:39;16.08;;;7.93;;
70929;SDS011;58588;48.102;19.682;2023-04-24T03:17:41;15.20;;;6.03;;
70929;SDS011;58588;48.102;19.682;2023-04-24T03:20:45;13.90;;;7.07;;
70929;SDS011;58588;48.102;19.682;2023-04-24T03:23:47;12.00;;;5.90;;
70929;SDS011;58588;48.102;19.682;2023-04-24T03:26:50;13.07;;;6.47;;
70929;SDS011;58588;48.102;19.682;2023-04-24T03:29:52;14.73;;;7.38;;
70929;SDS011;58588;48.102;19.682;2023-04-24T03:32:55;17.05;;;7.97;;
70929;SDS011;58588;48.102;19.682;2023-04-24T03:35:57;17.05;;;8.43;;
70929;SDS011;58588;48.102;19.682;2023-04-24T03:38:59;21.57;;;10.07;;
70929;SDS011;58588;48.102;19.682;2023-04-24T03:42:03;19.25;;;8.93;;
70929;SDS011;58588;48.102;19.682;2023-04-24T03:45:05;15.68;;;7.97;;
70929;SDS011;58588;48.102;19.682;2023-04-24T03:48:08;22.50;;;9.90;;
70929;SDS011;58588;48.102;19.682;2023-04-24T03:51:10;18.38;;;8.15;;
70929;SDS011;58588;48.102;19.682;2023-04-24T03:54:12;20.00;;;9.47;;
70929;SDS011;58588;48.102;19.682;2023-04-24T03:57:16;25.58;;;12.50;;
70929;SDS011;58588;48.102;19.682;2023-04-24T04:00:18;25.00;;;12.45;;
70929;SDS011;58588;48.102;19.682;2023-04-24T04:03:21;21.00;;;10.35;;
70929;SDS011;58588;48.102;19.682;2023-04-24T04:06:23;23.17;;;11.15;;
70929;SDS011;58588;48.102;19.682;2023-04-24T04:09:25;21.13;;;10.30;;
70929;SDS011;58588;48.102;19.682;2023-04-24T04:12:28;22.45;;;10.15;;
70929;SDS011;58588;48.102;19.682;2023-04-24T04:15:30;21.65;;;10.38;;
70929;SDS011;58588;48.102;19.682;2023-04-24T04:18:33;22.85;;;10.43;;
70929;SDS011;58588;48.102;19.682;2023-04-24T04:21:35;20.42;;;9.80;;
70929;SDS011;58588;48.102;19.682;2023-04-24T04:24:37;16.57;;;8.83;;
70929;SDS011;58588;48.102;19.682;2023-04-24T04:27:42;16.38;;;8.32;;
70929;SDS011;58588;48.102;19.682;2023-04-24T04:30:44;16.95;;;8.25;;
70929;SDS011;58588;48.102;19.682;2023-04-24T04:33:47;15.32;;;8.27;;
70929;SDS011;58588;48.102;19.682;2023-04-24T04:36:49;19.13;;;8.80;;
70929;SDS011;58588;48.102;19.682;2023-04-24T04:39:51;15.57;;;8.73;;
70929;SDS011;58588;48.102;19.682;2023-04-24T04:42:55;18.13;;;8.52;;
70929;SDS011;58588;48.102;19.682;2023-04-24T04:45:57;17.25;;;9.10;;
70929;SDS011;58588;48.102;19.682;2023-04-24T04:49:01;18.77;;;9.27;;
70929;SDS011;58588;48.102;19.682;2023-04-24T04:52:03;21.85;;;12.32;;
70929;SDS011;58588;48.102;19.682;2023-04-24T04:55:05;19.87;;;9.60;;
70929;SDS011;58588;48.102;19.682;2023-04-24T04:58:09;20.15;;;10.63;;
70929;SDS011;58588;48.102;19.682;2023-04-24T05:01:11;17.67;;;9.30;;
70929;SDS011;58588;48.102;19.682;2023-04-24T05:04:14;17.38;;;9.45;;
70929;SDS011;58588;48.102;19.682;2023-04-24T05:07:16;18.38;;;9.32;;
70929;SDS011;58588;48.102;19.682;2023-04-24T05:10:18;19.07;;;9.50;;
70929;SDS011;58588;48.102;19.682;2023-04-24T05:13:21;15.98;;;7.22;;
70929;SDS011;58588;48.102;19.682;2023-04-24T05:16:24;15.73;;;7.15;;
70929;SDS011;58588;48.102;19.682;2023-04-24T05:19:26;16.00;;;8.40;;
70929;SDS011;58588;48.102;19.682;2023-04-24T05:22:28;18.98;;;9.55;;
70929;SDS011;58588;48.102;19.682;2023-04-24T05:25:30;17.90;;;8.20;;
70929;SDS011;58588;48.102;19.682;2023-04-24T05:28:36;12.82;;;7.00;;
70929;SDS011;58588;48.102;19.682;2023-04-24T05:31:38;15.80;;;7.30;;
70929;SDS011;58588;48.102;19.682;2023-04-24T05:34:40;15.88;;;8.60;;
70929;SDS011;58588;48.102;19.682;2023-04-24T05:37:42;18.60;;;8.18;;
70929;SDS011;58588;48.102;19.682;2023-04-24T05:40:44;16.03;;;8.47;;
70929;SDS011;58588;48.102;19.682;2023-04-24T05:43:48;13.38;;;7.80;;
70929;SDS011;58588;48.102;19.682;2023-04-24T05:46:51;18.70;;;10.20;;
70929;SDS011;58588;48.102;19.682;2023-04-24T05:49:53;15.60;;;8.70;;
70929;SDS011;58588;48.102;19.682;2023-04-24T05:52:55;16.30;;;8.55;;
70929;SDS011;58588;48.102;19.682;2023-04-24T05:55:58;18.43;;;9.13;;
70929;SDS011;58588;48.102;19.682;2023-04-24T05:59:01;21.42;;;9.82;;
70929;SDS011;58588;48.102;19.682;2023-04-24T06:02:04;20.42;;;9.57;;
70929;SDS011;58588;48.102;19.682;2023-04-24T06:05:07;18.48;;;9.35;;
70929;SDS011;58588;48.102;19.682;2023-04-24T06:08:09;20.95;;;10.05;;
70929;SDS011;58588;48.102;19.682;2023-04-24T06:11:12;21.53;;;9.40;;
70929;SDS011;58588;48.102;19.682;2023-04-24T06:14:15;21.15;;;10.10;;
70929;SDS011;58588;48.102;19.682;2023-04-24T06:17:17;17.70;;;9.70;;
70929;SDS011;58588;48.102;19.682;2023-04-24T06:20:20;20.17;;;10.35;;
70929;SDS011;58588;48.102;19.682;2023-04-24T06:23:22;120.15;;;60.20;;
70929;SDS011;58588;48.102;19.682;2023-04-24T06:26:24;48.17;;;25.00;;
70929;SDS011;58588;48.102;19.682;2023-04-24T06:29:30;23.45;;;12.80;;
70929;SDS011;58588;48.102;19.682;2023-04-24T06:32:32;18.52;;;9.88;;
70929;SDS011;58588;48.102;19.682;2023-04-24T06:35:34;17.15;;;8.93;;
70929;SDS011;58588;48.102;19.682;2023-04-24T06:38:38;19.00;;;9.98;;
70929;SDS011;58588;48.102;19.682;2023-04-24T06:41:40;20.10;;;8.80;;
70929;SDS011;58588;48.102;19.682;2023-04-24T06:44:43;16.42;;;9.13;;
70929;SDS011;58588;48.102;19.682;2023-04-24T06:47:46;14.50;;;8.55;;
70929;SDS011;58588;48.102;19.682;2023-04-24T06:50:48;15.48;;;8.77;;
70929;SDS011;58588;48.102;19.682;2023-04-24T06:53:50;17.00;;;9.48;;
70929;SDS011;58588;48.102;19.682;2023-04-24T06:56:53;16.20;;;8.43;;
70929;SDS011;58588;48.102;19.682;2023-04-24T06:59:56;14.93;;;8.00;;
70929;SDS011;58588;48.102;19.682;2023-04-24T07:02:59;16.75;;;8.07;;
70929;SDS011;58588;48.102;19.682;2023-04-24T07:06:01;16.58;;;7.97;;
70929;SDS011;58588;48.102;19.682;2023-04-24T07:09:03;16.30;;;8.32;;
70929;SDS011;58588;48.102;19.682;2023-04-24T07:12:05;16.73;;;8.03;;
70929;SDS011;58588;48.102;19.682;2023-04-24T07:15:09;14.75;;;7.70;;
70929;SDS011;58588;48.102;19.682;2023-04-24T07:18:11;15.45;;;8.70;;
70929;SDS011;58588;48.102;19.682;2023-04-24T07:21:14;15.55;;;9.55;;
70929;SDS011;58588;48.102;19.682;2023-04-24T07:24:16;14.18;;;8.45;;
70929;SDS011;58588;48.102;19.682;2023-04-24T07:27:18;15.20;;;9.13;;
70929;SDS011;58588;48.102;19.682;2023-04-24T07:30:22;18.27;;;8.95;;
70929;SDS011;58588;48.102;19.682;2023-04-24T07:33:24;15.63;;;8.82;;
70929;SDS011;58588;48.102;19.682;2023-04-24T07:36:26;15.25;;;8.50;;
70929;SDS011;58588;48.102;19.682;2023-04-24T07:39:28;18.02;;;9.13;;
70929;SDS011;58588;48.102;19.682;2023-04-24T07:42:30;16.57;;;8.27;;
70929;SDS011;58588;48.102;19.682;2023-04-24T07:45:36;15.13;;;8.57;;
70929;SDS011;58588;48.102;19.682;2023-04-24T07:48:38;15.60;;;9.68;;
70929;SDS011;58588;48.102;19.682;2023-04-24T07:51:40;65.13;;;46.33;;
70929;SDS011;58588;48.102;19.682;2023-04-24T07:54:42;23.92;;;14.60;;
70929;SDS011;58588;48.102;19.682;2023-04-24T07:57:44;19.50;;;10.80;;
70929;SDS011;58588;48.102;19.682;2023-04-24T08:00:47;18.70;;;9.75;;
70929;SDS011;58588;48.102;19.682;2023-04-24T08:03:50;20.00;;;9.10;;
70929;SDS011;58588;48.102;19.682;2023-04-24T08:06:52;19.05;;;9.15;;
70929;SDS011;58588;48.102;19.682;2023-04-24T08:09:54;18.40;;;9.20;;
70929;SDS011;58588;48.102;19.682;2023-04-24T08:12:56;16.30;;;9.37;;
70929;SDS011;58588;48.102;19.682;2023-04-24T08:15:59;15.82;;;8.77;;
70929;SDS011;58588;48.102;19.682;2023-04-24T08:19:02;15.48;;;9.35;;
70929;SDS011;58588;48.102;19.682;2023-04-24T08:22:04;16.02;;;9.00;;
70929;SDS011;58588;48.102;19.682;2023-04-24T08:25:07;17.83;;;8.27;;
70929;SDS011;58588;48.102;19.682;2023-04-24T08:28:09;16.77;;;8.63;;
70929;SDS011;58588;48.102;19.682;2023-04-24T08:31:13;19.70;;;8.75;;
70929;SDS011;58588;48.102;19.682;2023-04-24T08:34:15;15.60;;;8.43;;
70929;SDS011;58588;48.102;19.682;2023-04-24T08:37:17;14.10;;;8.18;;
70929;SDS011;58588;48.102;19.682;2023-04-24T08:40:21;18.60;;;8.18;;
70929;SDS011;58588;48.102;19.682;2023-04-24T08:43:27;15.03;;;8.30;;
70929;SDS011;58588;48.102;19.682;2023-04-24T08:46:31;14.40;;;8.02;;
70929;SDS011;58588;48.102;19.682;2023-04-24T08:49:34;18.05;;;8.68;;
70929;SDS011;58588;48.102;19.682;2023-04-24T08:52:37;15.02;;;8.32;;
70929;SDS011;58588;48.102;19.682;2023-04-24T08:55:39;12.93;;;7.57;;
70929;SDS011;58588;48.102;19.682;2023-04-24T08:58:45;15.60;;;7.70;;
70929;SDS011;58588;48.102;19.682;2023-04-24T09:01:49;16.73;;;7.95;;
70929;SDS011;58588;48.102;19.682;2023-04-24T09:04:53;14.40;;;7.45;;
70929;SDS011;58588;48.102;19.682;2023-04-24T09:07:57;18.30;;;8.60;;
70929;SDS011;58588;48.102;19.682;2023-04-24T09:11:03;14.10;;;7.93;;
70929;SDS011;58588;48.102;19.682;2023-04-24T09:14:05;14.40;;;7.13;;
70929;SDS011;58588;48.102;19.682;2023-04-24T09:17:10;10.52;;;6.30;;
70929;SDS011;58588;48.102;19.682;2023-04-24T09:20:13;13.85;;;6.80;;
70929;SDS011;58588;48.102;19.682;2023-04-24T09:23:17;13.52;;;7.45;;
70929;SDS011;58588;48.102;19.682;2023-04-24T09:26:19;12.73;;;6.93;;
70929;SDS011;58588;48.102;19.682;2023-04-24T09:29:24;14.47;;;7.60;;
70929;SDS011;58588;48.102;19.682;2023-04-24T09:32:27;12.55;;;6.97;;
70929;SDS011;58588;48.102;19.682;2023-04-24T09:35:31;13.52;;;6.72;;
70929;SDS011;58588;48.102;19.682;2023-04-24T09:38:34;13.98;;;7.25;;
70929;SDS011;58588;48.102;19.682;2023-04-24T09:41:43;12.65;;;7.35;;
70929;SDS011;58588;48.102;19.682;2023-04-24T09:44:46;13.20;;;6.80;;
70929;SDS011;58588;48.102;19.682;2023-04-24T09:47:53;16.08;;;8.07;;
70929;SDS011;58588;48.102;19.682;2023-04-24T09:50:57;24.95;;;10.32;;
70929;SDS011;58588;48.102;19.682;2023-04-24T09:53:59;21.90;;;10.20;;
70929;SDS011;58588;48.102;19.682;2023-04-24T09:57:01;14.77;;;7.00;;
70929;SDS011;58588;48.102;19.682;2023-04-24T10:00:04;13.30;;;6.63;;
70929;SDS011;58588;48.102;19.682;2023-04-24T10:03:08;15.05;;;8.30;;
70929;SDS011;58588;48.102;19.682;2023-04-24T10:06:11;14.10;;;6.30;;
70929;SDS011;58588;48.102;19.682;2023-04-24T10:09:14;11.60;;;6.85;;
70929;SDS011;58588;48.102;19.682;2023-04-24T10:12:16;14.25;;;6.95;;
70929;SDS011;58588;48.102;19.682;2023-04-24T10:15:19;10.70;;;5.60;;
70929;SDS011;58588;48.102;19.682;2023-04-24T10:18:23;10.43;;;6.30;;
70929;SDS011;58588;48.102;19.682;2023-04-24T10:21:26;11.23;;;6.18;;
70929;SDS011;58588;48.102;19.682;2023-04-24T10:24:30;13.27;;;6.53;;
70929;SDS011;58588;48.102;19.682;2023-04-24T10:27:35;13.15;;;6.55;;
70929;SDS011;58588;48.102;19.682;2023-04-24T10:30:39;13.03;;;5.77;;
70929;SDS011;58588;48.102;19.682;2023-04-24T10:33:45;10.88;;;5.97;;
70929;SDS011;58588;48.102;19.682;2023-04-24T10:36:49;12.48;;;6.03;;
70929;SDS011;58588;48.102;19.682;2023-04-24T10:39:53;13.25;;;6.25;;
70929;SDS011;58588;48.102;19.682;2023-04-24T10:42:57;14.32;;;6.00;;
70929;SDS011;58588;48.102;19.682;2023-04-24T10:46:02;15.27;;;8.93;;
70929;SDS011;58588;48.102;19.682;2023-04-24T10:49:07;12.65;;;6.18;;
70929;SDS011;58588;48.102;19.682;2023-04-24T10:52:09;13.75;;;7.10;;
70929;SDS011;58588;48.102;19.682;2023-04-24T10:55:12;11.07;;;5.93;;
70929;SDS011;58588;48.102;19.682;2023-04-24T10:58:15;12.18;;;7.03;;
70929;SDS011;58588;48.102;19.682;2023-04-24T11:01:24;12.43;;;5.57;;
70929;SDS011;58588;48.102;19.682;2023-04-24T11:04:32;12.52;;;7.10;;
70929;SDS011;58588;48.102;19.682;2023-04-24T11:11:11;10.85;;;5.75;;
70929;SDS011;58588;48.102;19.682;2023-04-24T11:14:14;13.40;;;6.65;;
70929;SDS011;58588;48.102;19.682;2023-04-24T11:17:26;12.60;;;6.87;;
70929;SDS011;58588;48.102;19.682;2023-04-24T11:20:34;18.75;;;8.35;;
70929;SDS011;58588;48.102;19.682;2023-04-24T11:23:36;11.73;;;6.28;;
70929;SDS011;58588;48.102;19.682;2023-04-24T11:26:38;11.40;;;5.80;;
70929;SDS011;58588;48.102;19.682;2023-04-24T11:29:46;11.93;;;5.93;;
70929;SDS011;58588;48.102;19.682;2023-04-24T11:32:50;10.37;;;5.70;;
70929;SDS011;58588;48.102;19.682;2023-04-24T11:35:54;11.57;;;6.03;;
70929;SDS011;58588;48.102;19.682;2023-04-24T11:38:56;10.70;;;6.07;;
70929;SDS011;58588;48.102;19.682;2023-04-24T11:42:01;9.73;;;6.00;;
70929;SDS011;58588;48.102;19.682;2023-04-24T11:45:09;13.88;;;7.70;;
70929;SDS011;58588;48.102;19.682;2023-04-24T11:48:18;12.83;;;6.27;;
70929;SDS011;58588;48.102;19.682;2023-04-24T11:51:23;17.13;;;9.18;;
70929;SDS011;58588;48.102;19.682;2023-04-24T11:54:26;13.05;;;7.15;;
70929;SDS011;58588;48.102;19.682;2023-04-24T11:57:29;11.18;;;6.50;;
70929;SDS011;58588;48.102;19.682;2023-04-24T12:00:33;12.48;;;6.50;;
70929;SDS011;58588;48.102;19.682;2023-04-24T12:03:36;10.97;;;6.53;;
70929;SDS011;58588;48.102;19.682;2023-04-24T12:06:40;10.63;;;6.43;;
70929;SDS011;58588;48.102;19.682;2023-04-24T12:10:00;13.27;;;6.05;;
70929;SDS011;58588;48.102;19.682;2023-04-24T12:13:02;12.70;;;6.90;;
70929;SDS011;58588;48.102;19.682;2023-04-24T12:16:04;14.77;;;6.82;;
70929;SDS011;58588;48.102;19.682;2023-04-24T12:19:06;12.00;;;6.73;;
70929;SDS011;58588;48.102;19.682;2023-04-24T12:22:10;13.77;;;7.35;;
70929;SDS011;58588;48.102;19.682;2023-04-24T12:25:12;12.65;;;7.22;;
70929;SDS011;58588;48.102;19.682;2023-04-24T12:28:14;11.13;;;6.35;;
70929;SDS011;58588;48.102;19.682;2023-04-24T12:31:16;19.17;;;8.02;;
70929;SDS011;58588;48.102;19.682;2023-04-24T12:34:19;12.30;;;7.33;;
70929;SDS011;58588;48.102;19.682;2023-04-24T12:37:24;20.85;;;10.23;;
70929;SDS011;58588;48.102;19.682;2023-04-24T12:40:26;15.90;;;8.50;;
70929;SDS011;58588;48.102;19.682;2023-04-24T12:43:30;14.77;;;7.82;;
70929;SDS011;58588;48.102;19.682;2023-04-24T12:46:32;14.23;;;7.47;;
70929;SDS011;58588;48.102;19.682;2023-04-24T12:49:34;12.13;;;7.50;;
70929;SDS011;58588;48.102;19.682;2023-04-24T12:52:38;12.60;;;7.25;;
70929;SDS011;58588;48.102;19.682;2023-04-24T12:55:40;13.15;;;7.68;;
70929;SDS011;58588;48.102;19.682;2023-04-24T12:58:44;12.63;;;6.57;;
70929;SDS011;58588;48.102;19.682;2023-04-24T13:01:46;13.45;;;7.32;;
70929;SDS011;58588;48.102;19.682;2023-04-24T13:04:48;11.77;;;7.13;;
70929;SDS011;58588;48.102;19.682;2023-04-24T13:07:52;14.77;;;7.28;;
70929;SDS011;58588;48.102;19.682;2023-04-24T13:10:54;12.55;;;7.60;;
70929;SDS011;58588;48.102;19.682;2023-04-24T13:13:56;18.42;;;10.82;;
70929;SDS011;58588;48.102;19.682;2023-04-24T13:16:58;19.55;;;10.45;;
70929;SDS011;58588;48.102;19.682;2023-04-24T13:20:00;21.43;;;11.30;;
70929;SDS011;58588;48.102;19.682;2023-04-24T13:23:04;24.90;;;13.50;;
70929;SDS011;58588;48.102;19.682;2023-04-24T13:26:06;20.35;;;11.88;;
70929;SDS011;58588;48.102;19.682;2023-04-24T13:29:08;19.75;;;11.07;;
70929;SDS011;58588;48.102;19.682;2023-04-24T13:32:10;20.42;;;11.73;;
70929;SDS011;58588;48.102;19.682;2023-04-24T13:35:13;16.57;;;10.17;;
70929;SDS011;58588;48.102;19.682;2023-04-24T13:38:16;17.25;;;10.40;;
70929;SDS011;58588;48.102;19.682;2023-04-24T13:41:21;16.42;;;10.25;;
70929;SDS011;58588;48.102;19.682;2023-04-24T13:48:26;21.20;;;11.35;;
70929;SDS011;58588;48.102;19.682;2023-04-24T13:51:34;20.90;;;14.23;;
70929;SDS011;58588;48.102;19.682;2023-04-24T13:54:40;21.00;;;14.35;;
70929;SDS011;58588;48.102;19.682;2023-04-24T13:57:42;19.75;;;13.30;;
70929;SDS011;58588;48.102;19.682;2023-04-24T14:00:44;19.35;;;12.02;;
70929;SDS011;58588;48.102;19.682;2023-04-24T14:03:46;20.58;;;13.05;;
70929;SDS011;58588;48.102;19.682;2023-04-24T14:06:48;22.73;;;12.90;;
70929;SDS011;58588;48.102;19.682;2023-04-24T14:09:52;21.05;;;12.65;;
70929;SDS011;58588;48.102;19.682;2023-04-24T14:12:54;21.63;;;13.35;;
70929;SDS011;58588;48.102;19.682;2023-04-24T14:15:56;23.92;;;14.52;;
70929;SDS011;58588;48.102;19.682;2023-04-24T14:18:58;23.38;;;14.50;;
70929;SDS011;58588;48.102;19.682;2023-04-24T14:22:00;23.93;;;14.87;;
70929;SDS011;58588;48.102;19.682;2023-04-24T14:25:04;23.05;;;14.23;;
70929;SDS011;58588;48.102;19.682;2023-04-24T14:28:07;24.38;;;15.00;;
70929;SDS011;58588;48.102;19.682;2023-04-24T14:31:09;31.52;;;18.02;;
70929;SDS011;58588;48.102;19.682;2023-04-24T14:34:11;27.80;;;17.27;;
70929;SDS011;58588;48.102;19.682;2023-04-24T14:37:15;29.97;;;18.27;;
70929;SDS011;58588;48.102;19.682;2023-04-24T14:40:18;25.95;;;16.23;;
70929;SDS011;58588;48.102;19.682;2023-04-24T14:43:21;28.17;;;17.23;;
70929;SDS011;58588;48.102;19.682;2023-04-24T14:46:23;30.35;;;16.88;;
70929;SDS011;58588;48.102;19.682;2023-04-24T14:49:25;38.03;;;20.63;;
70929;SDS011;58588;48.102;19.682;2023-04-24T14:52:27;26.80;;;16.50;;
70929;SDS011;58588;48.102;19.682;2023-04-24T14:55:31;34.05;;;21.10;;
70929;SDS011;58588;48.102;19.682;2023-04-24T14:58:34;27.52;;;16.83;;
70929;SDS011;58588;48.102;19.682;2023-04-24T15:01:36;28.02;;;17.60;;
70929;SDS011;58588;48.102;19.682;2023-04-24T15:04:38;29.52;;;17.73;;
70929;SDS011;58588;48.102;19.682;2023-04-24T15:07:41;26.23;;;16.33;;
70929;SDS011;58588;48.102;19.682;2023-04-24T15:10:44;38.47;;;23.33;;
70929;SDS011;58588;48.102;19.682;2023-04-24T15:13:46;102.18;;;47.58;;
70929;SDS011;58588;48.102;19.682;2023-04-24T15:16:48;41.30;;;25.15;;
70929;SDS011;58588;48.102;19.682;2023-04-24T15:19:51;32.85;;;21.83;;
70929;SDS011;58588;48.102;19.682;2023-04-24T15:22:53;30.30;;;19.37;;
70929;SDS011;58588;48.102;19.682;2023-04-24T15:25:56;26.00;;;18.17;;
70929;SDS011;58588;48.102;19.682;2023-04-24T15:28:58;76.72;;;44.67;;
70929;SDS011;58588;48.102;19.682;2023-04-24T15:32:01;54.13;;;33.58;;
70929;SDS011;58588;48.102;19.682;2023-04-24T15:35:03;38.30;;;24.45;;
70929;SDS011;58588;48.102;19.682;2023-04-24T15:38:06;32.73;;;20.90;;
70929;SDS011;58588;48.102;19.682;2023-04-24T15:41:09;32.08;;;19.55;;
70929;SDS011;58588;48.102;19.682;2023-04-24T15:44:11;30.10;;;19.77;;
70929;SDS011;58588;48.102;19.682;2023-04-24T15:47:13;31.15;;;19.00;;
70929;SDS011;58588;48.102;19.682;2023-04-24T15:50:15;30.23;;;19.67;;
70929;SDS011;58588;48.102;19.682;2023-04-24T15:53:18;59.50;;;42.47;;
70929;SDS011;58588;48.102;19.682;2023-04-24T15:56:23;40.20;;;28.02;;
70929;SDS011;58588;48.102;19.682;2023-04-24T15:59:25;35.33;;;22.63;;
70929;SDS011;58588;48.102;19.682;2023-04-24T16:02:29;31.65;;;20.45;;
70929;SDS011;58588;48.102;19.682;2023-04-24T16:05:37;35.10;;;21.65;;
70929;SDS011;58588;48.102;19.682;2023-04-24T16:08:39;30.87;;;20.17;;
70929;SDS011;58588;48.102;19.682;2023-04-24T16:11:43;39.65;;;21.65;;
70929;SDS011;58588;48.102;19.682;2023-04-24T16:14:45;39.05;;;23.08;;
70929;SDS011;58588;48.102;19.682;2023-04-24T16:17:47;38.35;;;24.05;;
70929;SDS011;58588;48.102;19.682;2023-04-24T16:20:50;40.03;;;24.98;;
70929;SDS011;58588;48.102;19.682;2023-04-24T16:23:52;38.77;;;23.27;;
70929;SDS011;58588;48.102;19.682;2023-04-24T16:26:56;39.80;;;25.35;;
70929;SDS011;58588;48.102;19.682;2023-04-24T16:29:58;40.47;;;26.38;;
70929;SDS011;58588;48.102;19.682;2023-04-24T16:33:00;33.78;;;21.80;;
70929;SDS011;58588;48.102;19.682;2023-04-24T16:36:06;31.77;;;22.30;;
70929;SDS011;58588;48.102;19.682;2023-04-24T16:39:09;38.37;;;25.37;;
70929;SDS011;58588;48.102;19.682;2023-04-24T16:42:12;157.70;;;97.55;;
70929;SDS011;58588;48.102;19.682;2023-04-24T16:45:15;67.90;;;46.92;;
70929;SDS011;58588;48.102;19.682;2023-04-24T16:48:17;42.85;;;29.00;;
70929;SDS011;58588;48.102;19.682;2023-04-24T16:51:20;28.85;;;18.33;;
70929;SDS011;58588;48.102;19.682;2023-04-24T16:54:22;29.37;;;18.53;;
70929;SDS011;58588;48.102;19.682;2023-04-24T16:57:28;28.23;;;16.52;;
70929;SDS011;58588;48.102;19.682;2023-04-24T17:00:30;21.60;;;13.10;;
70929;SDS011;58588;48.102;19.682;2023-04-24T17:03:32;22.75;;;13.40;;
70929;SDS011;58588;48.102;19.682;2023-04-24T17:06:34;18.95;;;11.57;;
70929;SDS011;58588;48.102;19.682;2023-04-24T17:09:37;20.20;;;12.67;;
70929;SDS011;58588;48.102;19.682;2023-04-24T17:12:40;17.90;;;10.90;;
70929;SDS011;58588;48.102;19.682;2023-04-24T17:15:43;19.15;;;10.70;;
70929;SDS011;58588;48.102;19.682;2023-04-24T17:18:45;46.03;;;20.55;;
70929;SDS011;58588;48.102;19.682;2023-04-24T17:21:47;55.13;;;25.55;;
70929;SDS011;58588;48.102;19.682;2023-04-24T17:24:49;38.03;;;20.13;;
70929;SDS011;58588;48.102;19.682;2023-04-24T17:27:52;31.63;;;19.80;;
70929;SDS011;58588;48.102;19.682;2023-04-24T17:30:55;26.85;;;15.80;;
70929;SDS011;58588;48.102;19.682;2023-04-24T17:34:00;23.17;;;12.65;;
70929;SDS011;58588;48.102;19.682;2023-04-24T17:37:03;18.77;;;10.48;;
70929;SDS011;58588;48.102;19.682;2023-04-24T17:40:05;16.83;;;9.97;;
70929;SDS011;58588;48.102;19.682;2023-04-24T17:43:10;23.13;;;14.60;;
70929;SDS011;58588;48.102;19.682;2023-04-24T17:46:17;25.95;;;16.45;;
70929;SDS011;58588;48.102;19.682;2023-04-24T17:49:19;20.75;;;13.20;;
70929;SDS011;58588;48.102;19.682;2023-04-24T17:52:21;20.45;;;12.25;;